createdAt,value
2018-04-19T00:01:54.069Z,12.27
2018-04-19T00:04:21.739Z,16.47
2018-04-19T00:06:49.466Z,15.47
2018-04-19T00:09:17.067Z,16.80
2018-04-19T00:11:44.801Z,13.67
2018-04-19T00:14:12.580Z,8.83
2018-04-19T00:16:40.252Z,9.43
2018-04-19T00:19:07.936Z,11.13
2018-04-19T00:21:35.563Z,10.63
2018-04-19T00:24:03.213Z,9.60
2018-04-19T00:26:30.831Z,10.23
2018-04-19T00:28:58.592Z,15.37
2018-04-19T00:31:26.232Z,12.87
2018-04-19T00:33:53.807Z,12.20
2018-04-19T00:36:21.610Z,11.63
2018-04-19T00:38:49.192Z,12.03
2018-04-19T00:41:16.789Z,10.20
2018-04-19T00:43:45.227Z,11.87
2018-04-19T00:46:13.549Z,15.23
2018-04-19T00:48:41.142Z,13.77
2018-04-19T00:51:08.842Z,15.20
2018-04-19T00:53:37.103Z,14.40
2018-04-19T00:56:04.772Z,11.70
2018-04-19T00:58:32.480Z,12.97
2018-04-19T01:01:00.126Z,16.90
2018-04-19T01:03:27.711Z,13.50
2018-04-19T01:05:56.249Z,9.63
2018-04-19T01:08:24.423Z,11.97
2018-04-19T01:10:52.070Z,11.57
2018-04-19T01:13:19.786Z,10.20
2018-04-19T01:15:47.366Z,13.80
2018-04-19T01:18:14.947Z,13.33
2018-04-19T01:20:42.630Z,14.83
2018-04-19T01:23:10.285Z,12.33
2018-04-19T01:25:37.957Z,13.53
2018-04-19T01:28:05.658Z,12.67
2018-04-19T01:30:33.249Z,9.97
2018-04-19T01:33:00.833Z,12.33
2018-04-19T01:35:40.385Z,14.93
2018-04-19T01:38:08.129Z,14.03
2018-04-19T01:40:35.760Z,17.73
2018-04-19T01:43:03.501Z,11.87
2018-04-19T01:45:31.092Z,17.80
2018-04-19T01:47:58.763Z,11.83
2018-04-19T01:50:26.388Z,15.77
2018-04-19T01:52:54.041Z,13.73
2018-04-19T01:55:21.645Z,14.13
2018-04-19T01:57:49.282Z,15.93
2018-04-19T02:00:16.872Z,15.43
2018-04-19T02:02:44.475Z,13.80
2018-04-19T02:05:12.118Z,17.03
2018-04-19T02:07:39.782Z,21.40
2018-04-19T02:10:07.400Z,15.40
2018-04-19T02:12:35.140Z,17.93
2018-04-19T02:15:02.788Z,18.97
2018-04-19T02:17:30.376Z,19.57
2018-04-19T02:19:58.979Z,18.17
2018-04-19T02:22:26.636Z,16.27
2018-04-19T02:24:54.215Z,16.27
2018-04-19T02:27:21.968Z,17.73
2018-04-19T02:29:49.629Z,19.03
2018-04-19T02:32:17.218Z,17.53
2018-04-19T02:34:44.922Z,16.57
2018-04-19T02:37:12.509Z,16.80
2018-04-19T02:39:40.252Z,17.27
2018-04-19T02:42:07.905Z,16.63
2018-04-19T02:44:35.545Z,21.67
2018-04-19T02:47:03.208Z,19.97
2018-04-19T02:49:30.857Z,16.60
2018-04-19T02:51:58.485Z,17.73
2018-04-19T02:54:26.137Z,21.73
2018-04-19T02:56:53.903Z,18.60
2018-04-19T02:59:21.544Z,17.93
2018-04-19T03:01:49.140Z,18.37
2018-04-19T03:04:16.882Z,23.30
2018-04-19T03:06:44.543Z,20.63
2018-04-19T03:09:12.129Z,20.80
2018-04-19T03:11:39.854Z,17.50
2018-04-19T03:14:07.454Z,20.53
2018-04-19T03:16:35.116Z,22.13
2018-04-19T03:19:02.839Z,21.25
2018-04-19T03:21:30.490Z,19.60
2018-04-19T03:23:58.133Z,21.17
2018-04-19T03:26:25.773Z,19.73
2018-04-19T03:28:53.415Z,20.47
2018-04-19T03:31:20.997Z,20.27
2018-04-19T03:33:48.743Z,21.93
2018-04-19T03:36:16.339Z,19.40
2018-04-19T03:38:43.924Z,20.37
2018-04-19T03:41:11.739Z,22.70
2018-04-19T03:43:39.405Z,20.07
2018-04-19T03:46:07.015Z,21.40
2018-04-19T03:48:34.768Z,23.27
2018-04-19T03:51:02.370Z,23.00
2018-04-19T03:53:30.037Z,33.60
2018-04-19T03:55:57.705Z,32.17
2018-04-19T03:58:25.287Z,33.33
2018-04-19T04:00:52.880Z,23.73
2018-04-19T04:03:20.605Z,21.77
2018-04-19T04:05:48.243Z,22.77
2018-04-19T04:08:15.845Z,20.57
2018-04-19T04:10:43.625Z,21.10
2018-04-19T04:13:11.243Z,37.10
2018-04-19T04:15:38.823Z,26.13
2018-04-19T04:18:18.332Z,23.77
2018-04-19T04:20:57.737Z,23.53
2018-04-19T04:23:55.051Z,20.43
2018-04-19T04:26:22.650Z,28.10
2018-04-19T04:28:50.253Z,21.80
2018-04-19T04:31:17.991Z,23.93
2018-04-19T04:33:45.646Z,26.37
2018-04-19T04:36:13.235Z,23.13
2018-04-19T04:38:40.989Z,39.67
2018-04-19T04:41:08.644Z,37.23
2018-04-19T04:43:37.024Z,35.13
2018-04-19T04:46:04.716Z,29.57
2018-04-19T04:48:32.380Z,27.97
2018-04-19T04:51:00.006Z,33.00
2018-04-19T04:53:27.723Z,40.33
2018-04-19T04:55:55.345Z,26.60
2018-04-19T04:58:22.987Z,34.57
2018-04-19T05:00:50.672Z,19.43
2018-04-19T05:03:18.255Z,34.90
2018-04-19T05:05:45.903Z,30.17
2018-04-19T05:08:13.613Z,25.47
2018-04-19T05:10:41.208Z,43.87
2018-04-19T05:13:08.824Z,43.77
2018-04-19T05:15:36.623Z,24.97
2018-04-19T05:18:04.215Z,20.13
2018-04-19T05:20:31.801Z,19.17
2018-04-19T05:22:59.533Z,21.90
2018-04-19T05:25:27.203Z,27.90
2018-04-19T05:27:55.414Z,27.00
2018-04-19T05:30:23.205Z,28.27
2018-04-19T05:32:50.801Z,27.07
2018-04-19T05:35:18.387Z,35.47
2018-04-19T05:37:46.036Z,27.90
2018-04-19T05:40:14.451Z,30.85
2018-04-19T05:42:42.112Z,32.23
2018-04-19T05:45:09.921Z,26.20
2018-04-19T05:47:37.578Z,28.70
2018-04-19T05:50:05.249Z,24.70
2018-04-19T05:52:32.956Z,24.07
2018-04-19T05:55:00.647Z,19.77
2018-04-19T05:57:28.287Z,20.23
2018-04-19T05:59:55.932Z,15.23
2018-04-19T06:02:23.512Z,17.73
2018-04-19T06:04:51.108Z,18.63
2018-04-19T06:07:18.784Z,21.23
2018-04-19T06:09:46.441Z,17.37
2018-04-19T06:12:14.080Z,30.73
2018-04-19T06:14:41.731Z,26.00
2018-04-19T06:17:09.473Z,20.50
2018-04-19T06:19:37.161Z,25.33
2018-04-19T06:22:04.921Z,23.53
2018-04-19T06:24:32.564Z,22.70
2018-04-19T06:27:00.147Z,20.67
2018-04-19T06:29:27.890Z,21.07
2018-04-19T06:31:55.572Z,17.87
2018-04-19T06:34:23.218Z,19.43
2018-04-19T06:36:50.868Z,16.50
2018-04-19T06:39:18.525Z,19.73
2018-04-19T06:41:46.145Z,21.93
2018-04-19T06:44:13.892Z,27.30
2018-04-19T06:46:41.671Z,23.63
2018-04-19T06:49:09.889Z,29.00
2018-04-19T06:51:37.529Z,24.30
2018-04-19T06:54:05.124Z,20.93
2018-04-19T06:56:32.711Z,22.10
2018-04-19T06:59:00.505Z,27.03
2018-04-19T07:01:28.159Z,26.30
2018-04-19T07:03:56.396Z,23.60
2018-04-19T07:06:24.092Z,25.70
2018-04-19T07:08:51.762Z,23.30
2018-04-19T07:11:19.347Z,22.87
2018-04-19T07:13:47.054Z,20.00
2018-04-19T07:16:14.712Z,27.07
2018-04-19T07:18:42.359Z,23.20
2018-04-19T07:21:10.126Z,19.67
2018-04-19T07:23:37.771Z,19.33
2018-04-19T07:26:05.448Z,19.83
2018-04-19T07:28:33.113Z,23.43
2018-04-19T07:31:00.732Z,18.43
2018-04-19T07:33:28.419Z,20.50
2018-04-19T07:35:56.144Z,22.00
2018-04-19T07:38:23.732Z,23.43
2018-04-19T07:40:51.322Z,23.83
2018-04-19T07:43:19.016Z,23.33
2018-04-19T07:45:46.616Z,24.47
2018-04-19T07:48:14.299Z,28.83
2018-04-19T07:50:41.952Z,20.93
2018-04-19T07:53:09.600Z,21.37
2018-04-19T07:55:37.262Z,21.20
2018-04-19T07:58:04.945Z,20.37
2018-04-19T08:00:32.541Z,23.20
2018-04-19T08:03:00.135Z,24.20
2018-04-19T08:05:27.916Z,23.20
2018-04-19T08:07:55.617Z,23.53
2018-04-19T08:10:23.216Z,20.10
2018-04-19T08:12:50.856Z,21.17
2018-04-19T08:15:18.506Z,24.23
2018-04-19T08:17:46.085Z,17.37
2018-04-19T08:20:13.747Z,19.73
2018-04-19T08:22:41.400Z,22.73
2018-04-19T08:25:09.069Z,21.27
2018-04-19T08:27:36.811Z,24.23
2018-04-19T08:30:04.425Z,23.83
2018-04-19T08:32:32.009Z,19.37
2018-04-19T08:34:59.736Z,16.90
2018-04-19T08:37:27.319Z,19.83
2018-04-19T08:39:54.906Z,16.50
2018-04-19T08:42:22.680Z,18.37
2018-04-19T08:44:50.883Z,23.30
2018-04-19T08:47:19.235Z,26.30
2018-04-19T08:49:47.044Z,22.53
2018-04-19T08:52:14.635Z,19.50
2018-04-19T08:54:42.218Z,23.50
2018-04-19T08:57:09.855Z,17.47
2018-04-19T08:59:37.436Z,18.83
2018-04-19T09:02:05.059Z,20.83
2018-04-19T09:04:32.747Z,20.97
2018-04-19T09:07:00.371Z,15.67
2018-04-19T09:09:27.971Z,19.83
2018-04-19T09:11:56.655Z,19.20
2018-04-19T09:14:24.310Z,16.00
2018-04-19T09:16:51.905Z,18.93
2018-04-19T09:19:19.632Z,19.00
2018-04-19T09:21:47.327Z,16.30
2018-04-19T09:24:14.994Z,20.03
2018-04-19T09:26:43.296Z,18.33
2018-04-19T09:29:10.916Z,20.43
2018-04-19T09:31:38.528Z,16.27
2018-04-19T09:34:06.244Z,22.27
2018-04-19T09:36:33.833Z,26.40
2018-04-19T09:39:01.435Z,22.97
2018-04-19T09:41:29.132Z,16.80
2018-04-19T09:43:56.737Z,19.73
2018-04-19T09:46:24.390Z,17.07
2018-04-19T09:48:52.027Z,16.93
2018-04-19T09:51:24.239Z,18.53
2018-04-19T09:53:52.260Z,17.13
2018-04-19T09:56:19.809Z,19.40
2018-04-19T09:58:59.315Z,19.17
2018-04-19T10:01:26.932Z,20.67
2018-04-19T10:03:54.560Z,19.47
2018-04-19T10:06:22.209Z,19.07
2018-04-19T10:08:49.796Z,16.70
2018-04-19T10:11:17.428Z,16.97
2018-04-19T10:13:45.081Z,16.80
2018-04-19T10:16:13.338Z,18.50
2018-04-19T10:18:40.938Z,15.90
2018-04-19T10:21:08.663Z,17.40
2018-04-19T10:23:36.262Z,18.03
2018-04-19T10:26:03.852Z,13.67
2018-04-19T10:28:31.584Z,16.60
2018-04-19T10:30:59.232Z,14.03
2018-04-19T10:33:26.828Z,16.07
2018-04-19T10:35:54.546Z,16.27
2018-04-19T10:38:22.151Z,16.53
2018-04-19T10:40:49.807Z,16.97
2018-04-19T10:43:17.649Z,20.70
2018-04-19T10:45:45.305Z,18.03
2018-04-19T10:48:12.969Z,18.33
2018-04-19T10:50:40.661Z,16.73
2018-04-19T10:53:08.797Z,15.00
2018-04-19T10:55:36.436Z,15.03
2018-04-19T10:58:04.140Z,16.67
2018-04-19T11:00:31.721Z,14.30
2018-04-19T11:02:59.306Z,14.63
2018-04-19T11:05:26.948Z,16.23
2018-04-19T11:07:54.605Z,15.87
2018-04-19T11:10:22.242Z,16.50
2018-04-19T11:12:50.013Z,18.47
2018-04-19T11:15:17.606Z,16.57
2018-04-19T11:17:45.953Z,21.73
2018-04-19T11:20:13.612Z,16.87
2018-04-19T11:22:41.256Z,17.33
2018-04-19T11:25:08.851Z,14.03
2018-04-19T11:27:36.489Z,15.13
2018-04-19T11:30:04.168Z,15.20
2018-04-19T11:32:31.756Z,16.57
2018-04-19T11:34:59.394Z,19.07
2018-04-19T11:37:26.995Z,15.93
2018-04-19T11:39:54.637Z,15.17
2018-04-19T11:42:22.356Z,16.87
2018-04-19T11:44:50.013Z,17.27
2018-04-19T11:47:17.746Z,16.97
2018-04-19T11:49:45.456Z,16.17
2018-04-19T11:52:13.049Z,16.20
2018-04-19T11:54:40.871Z,16.83
2018-04-19T11:57:08.535Z,17.70
2018-04-19T11:59:36.157Z,19.80
2018-04-19T12:02:03.872Z,17.93
2018-04-19T12:04:31.526Z,13.87
2018-04-19T12:06:59.265Z,15.23
2018-04-19T12:09:26.917Z,14.73
2018-04-19T12:11:54.597Z,15.30
2018-04-19T12:14:22.222Z,13.17
2018-04-19T12:16:49.801Z,12.10
2018-04-19T12:19:17.540Z,11.53
2018-04-19T12:21:45.127Z,16.43
2018-04-19T12:24:12.747Z,11.67
2018-04-19T12:26:40.439Z,12.67
2018-04-19T12:29:08.032Z,13.97
2018-04-19T12:31:35.673Z,12.80
2018-04-19T12:34:03.481Z,16.43
2018-04-19T12:36:31.088Z,12.10
2018-04-19T12:38:58.670Z,17.20
2018-04-19T12:41:26.389Z,14.27
2018-04-19T12:43:53.984Z,15.10
2018-04-19T12:46:21.639Z,14.17
2018-04-19T12:48:49.279Z,18.17
2018-04-19T12:51:16.898Z,14.13
2018-04-19T12:53:44.488Z,16.60
2018-04-19T12:56:12.244Z,13.40
2018-04-19T12:58:39.833Z,12.77
2018-04-19T13:01:07.461Z,16.47
2018-04-19T13:03:35.166Z,11.73
2018-04-19T13:06:02.776Z,12.27
2018-04-19T13:08:30.435Z,14.37
2018-04-19T13:10:58.124Z,14.97
2018-04-19T13:13:25.710Z,14.27
2018-04-19T13:15:53.344Z,13.70
2018-04-19T13:18:21.093Z,16.70
2018-04-19T13:20:48.730Z,16.77
2018-04-19T13:23:16.386Z,11.63
2018-04-19T13:25:44.052Z,15.33
2018-04-19T13:28:11.721Z,16.13
2018-04-19T13:30:39.340Z,15.13
2018-04-19T13:33:07.011Z,18.57
2018-04-19T13:35:34.595Z,17.77
2018-04-19T13:38:02.173Z,12.43
2018-04-19T13:40:29.820Z,13.87
2018-04-19T13:42:57.501Z,13.03
2018-04-19T13:45:25.089Z,14.67
2018-04-19T13:47:52.801Z,17.53
2018-04-19T13:50:20.605Z,19.40
2018-04-19T13:52:48.253Z,14.47
2018-04-19T13:55:16.044Z,14.47
2018-04-19T13:57:43.772Z,12.80
2018-04-19T14:00:11.368Z,22.03
2018-04-19T14:02:39.314Z,15.23
2018-04-19T14:05:06.981Z,20.27
2018-04-19T14:07:34.585Z,13.33
2018-04-19T14:10:02.348Z,17.17
2018-04-19T14:12:29.975Z,14.93
2018-04-19T14:14:57.559Z,13.93
2018-04-19T14:17:25.207Z,15.13
2018-04-19T14:19:52.837Z,15.30
2018-04-19T14:22:21.015Z,11.17
2018-04-19T14:24:48.660Z,14.53
2018-04-19T14:27:16.300Z,16.53
2018-04-19T14:32:21.820Z,15.40
2018-04-19T14:34:50.012Z,15.23
2018-04-19T14:37:17.604Z,17.20
2018-04-19T14:39:45.251Z,15.97
2018-04-19T14:42:12.852Z,13.77
2018-04-19T14:44:41.069Z,12.77
2018-04-19T14:47:08.769Z,18.20
2018-04-19T14:49:36.355Z,16.30
2018-04-19T14:52:03.968Z,15.47
2018-04-19T14:54:31.729Z,16.33
2018-04-19T14:56:59.304Z,16.83
2018-04-19T14:59:27.159Z,17.40
2018-04-19T15:01:54.797Z,16.63
2018-04-19T15:04:22.433Z,17.43
2018-04-19T15:06:50.015Z,15.80
2018-04-19T15:09:17.718Z,16.60
2018-04-19T15:11:45.345Z,17.97
2018-04-19T15:14:13.016Z,15.43
2018-04-19T15:16:40.802Z,13.73
2018-04-19T15:19:08.441Z,14.30
2018-04-19T15:21:36.017Z,14.77
2018-04-19T15:24:03.763Z,13.97
2018-04-19T15:26:31.408Z,14.97
2018-04-19T15:28:59.024Z,16.00
2018-04-19T15:31:26.648Z,14.97
2018-04-19T15:33:54.616Z,15.97
2018-04-19T15:36:22.940Z,13.10
2018-04-19T15:38:50.657Z,15.43
2018-04-19T15:41:18.353Z,14.27
2018-04-19T15:43:45.910Z,16.63
2018-04-19T15:46:13.784Z,15.10
2018-04-19T15:48:41.403Z,14.63
2018-04-19T15:51:08.998Z,18.27
2018-04-19T15:53:36.627Z,17.37
2018-04-19T15:56:04.297Z,14.80
2018-04-19T15:58:31.944Z,16.97
2018-04-19T16:00:59.734Z,12.70
2018-04-19T16:03:27.946Z,17.10
2018-04-19T16:05:56.311Z,17.83
2018-04-19T16:08:24.131Z,14.67
2018-04-19T16:10:51.791Z,17.87
2018-04-19T16:13:19.384Z,37.37
2018-04-19T16:15:47.092Z,31.10
2018-04-19T16:18:14.667Z,15.80
2018-04-19T16:20:42.273Z,19.53
2018-04-19T16:23:10.061Z,21.43
2018-04-19T16:25:37.662Z,16.80
2018-04-19T16:28:05.325Z,20.37
2018-04-19T16:30:32.956Z,31.40
2018-04-19T16:33:00.556Z,18.77
2018-04-19T16:35:28.173Z,19.17
2018-04-19T16:37:56.194Z,19.43
2018-04-19T16:40:23.896Z,39.70
2018-04-19T16:42:51.563Z,35.40
2018-04-19T16:45:20.218Z,16.73
2018-04-19T16:47:47.816Z,21.63
2018-04-19T16:50:15.446Z,18.90
2018-04-19T16:52:44.475Z,20.20
2018-04-19T16:55:12.149Z,27.60
2018-04-19T16:57:42.296Z,26.37
2018-04-19T17:00:11.254Z,15.70
2018-04-19T17:02:39.024Z,18.33
2018-04-19T17:05:06.652Z,19.67
2018-04-19T17:07:35.226Z,21.73
2018-04-19T17:10:02.903Z,18.57
2018-04-19T17:12:30.757Z,18.83
2018-04-19T17:14:58.419Z,36.67
2018-04-19T17:17:26.028Z,29.20
2018-04-19T17:19:53.620Z,36.30
2018-04-19T17:22:21.345Z,41.07
2018-04-19T17:24:48.931Z,22.40
2018-04-19T17:27:16.524Z,18.70
2018-04-19T17:29:44.228Z,16.90
2018-04-19T17:32:11.888Z,14.00
2018-04-19T17:34:39.523Z,15.67
2018-04-19T17:37:07.312Z,21.17
2018-04-19T17:39:34.910Z,17.70
2018-04-19T17:42:02.572Z,14.30
2018-04-19T17:44:30.292Z,15.63
2018-04-19T17:46:57.952Z,14.20
2018-04-19T17:49:26.690Z,18.43
2018-04-19T17:51:54.435Z,46.43
2018-04-19T17:54:22.152Z,18.30
2018-04-19T17:56:49.808Z,20.63
2018-04-19T17:59:18.036Z,18.43
2018-04-19T18:01:45.697Z,15.90
2018-04-19T18:04:13.417Z,15.07
2018-04-19T18:06:41.066Z,19.13
2018-04-19T18:09:08.653Z,19.70
2018-04-19T18:11:36.301Z,19.87
2018-04-19T18:14:03.950Z,18.87
2018-04-19T18:16:31.632Z,17.83
2018-04-19T18:18:59.338Z,30.53
2018-04-19T18:21:26.992Z,28.93
2018-04-19T18:23:54.595Z,15.83
2018-04-19T18:26:22.284Z,16.53
2018-04-19T18:28:49.932Z,15.30
2018-04-19T18:31:17.608Z,11.03
2018-04-19T18:33:45.255Z,12.90
2018-04-19T18:36:12.901Z,12.10
2018-04-19T18:38:40.580Z,23.37
2018-04-19T18:41:08.421Z,14.53
2018-04-19T18:43:36.219Z,15.57
2018-04-19T18:46:03.839Z,83.80
2018-04-19T18:48:31.515Z,27.70
2018-04-19T18:50:59.308Z,18.73
2018-04-19T18:53:26.891Z,15.43
2018-04-19T18:55:54.464Z,13.00
2018-04-19T18:58:22.151Z,12.20
2018-04-19T19:00:49.747Z,16.93
2018-04-19T19:03:17.398Z,16.33
2018-04-19T19:05:45.271Z,24.73
2018-04-19T19:08:12.873Z,21.17
2018-04-19T19:10:40.457Z,12.07
2018-04-19T19:13:08.312Z,12.60
2018-04-19T19:19:00.856Z,12.93
2018-04-19T19:21:28.446Z,10.43
2018-04-19T19:23:56.033Z,14.67
2018-04-19T19:26:23.841Z,14.13
2018-04-19T19:28:51.451Z,13.93
2018-04-19T19:31:19.089Z,12.63
2018-04-19T19:33:46.736Z,13.10
2018-04-19T19:36:14.330Z,12.10
2018-04-19T19:38:42.005Z,13.83
2018-04-19T19:41:09.784Z,15.30
2018-04-19T19:43:37.440Z,12.93
2018-04-19T19:46:05.088Z,11.47
2018-04-19T19:48:32.873Z,11.87
2018-04-19T19:51:00.462Z,11.93
2018-04-19T19:53:28.700Z,14.53
2018-04-19T19:55:56.339Z,12.43
2018-04-19T19:58:23.964Z,13.00
2018-04-19T20:00:51.569Z,9.57
2018-04-19T20:03:19.344Z,12.63
2018-04-19T20:05:47.166Z,12.00
2018-04-19T20:08:14.774Z,12.27
2018-04-19T20:10:42.579Z,11.00
2018-04-19T20:13:10.166Z,10.13
2018-04-19T20:15:37.832Z,11.17
2018-04-19T20:18:05.480Z,12.43
2018-04-19T20:20:33.737Z,11.23
2018-04-19T20:23:01.344Z,13.97
2018-04-19T20:25:28.970Z,14.13
2018-04-19T20:27:56.612Z,12.10
2018-04-19T20:30:24.795Z,14.90
2018-04-19T20:32:52.513Z,13.83
2018-04-19T20:35:20.093Z,11.33
2018-04-19T20:37:47.659Z,12.20
2018-04-19T20:40:15.446Z,14.07
2018-04-19T20:42:43.085Z,11.83
2018-04-19T20:45:10.663Z,11.20
2018-04-19T20:47:38.296Z,10.90
2018-04-19T20:50:05.882Z,12.93
2018-04-19T20:52:33.496Z,17.60
2018-04-19T20:55:01.155Z,15.30
2018-04-19T20:57:28.736Z,12.90
2018-04-19T20:59:56.329Z,19.33
2018-04-19T21:02:24.028Z,16.17
2018-04-19T21:04:51.623Z,10.57
2018-04-19T21:07:19.268Z,14.40
2018-04-19T21:09:46.909Z,24.43
2018-04-19T21:12:14.519Z,20.73
2018-04-19T21:14:42.103Z,15.30
2018-04-19T21:17:09.804Z,11.00
2018-04-19T21:19:37.478Z,10.33
2018-04-19T21:22:05.748Z,18.80
2018-04-19T21:24:33.487Z,10.50
2018-04-19T21:27:01.061Z,13.60
2018-04-19T21:29:28.705Z,10.73
2018-04-19T21:31:56.456Z,11.50
2018-04-19T21:34:24.048Z,11.87
2018-04-19T21:36:51.687Z,9.83
2018-04-19T21:39:19.421Z,11.97
2018-04-19T21:41:47.001Z,8.97
2018-04-19T21:44:14.564Z,9.90
2018-04-19T21:46:42.360Z,10.27
2018-04-19T21:49:09.992Z,12.77
2018-04-19T21:51:37.649Z,9.57
2018-04-19T21:54:05.376Z,9.30
2018-04-19T21:56:33.025Z,10.10
2018-04-19T21:59:00.615Z,10.70
2018-04-19T22:01:28.333Z,9.07
2018-04-19T22:03:55.912Z,12.23
2018-04-19T22:06:23.508Z,12.67
2018-04-19T22:08:51.283Z,9.60
2018-04-19T22:11:18.866Z,11.07
2018-04-19T22:13:46.435Z,10.83
2018-04-19T22:16:14.221Z,9.27
2018-04-19T22:18:42.045Z,11.73
2018-04-19T22:21:09.628Z,11.33
2018-04-19T22:23:37.266Z,15.30
2018-04-19T22:26:04.868Z,14.07
2018-04-19T22:28:32.452Z,9.47
2018-04-19T22:31:00.172Z,10.80
2018-04-19T22:33:28.484Z,9.70
2018-04-19T22:35:56.057Z,35.33
2018-04-19T22:38:23.696Z,13.50
2018-04-19T22:40:51.272Z,11.73
2018-04-19T22:43:18.858Z,8.03
2018-04-19T22:45:46.545Z,9.67
2018-04-19T22:48:14.145Z,10.07
2018-04-19T22:50:41.755Z,9.17
2018-04-19T22:53:09.480Z,7.27
2018-04-19T22:55:37.064Z,7.80
2018-04-19T22:58:04.652Z,6.40
2018-04-19T23:00:32.358Z,8.63
2018-04-19T23:02:59.932Z,7.93
2018-04-19T23:05:27.530Z,7.57
2018-04-19T23:07:55.236Z,6.80
2018-04-19T23:10:23.032Z,7.77
2018-04-19T23:12:50.608Z,8.93
2018-04-19T23:15:18.236Z,7.30
2018-04-19T23:17:45.899Z,8.93
2018-04-19T23:20:13.545Z,11.60
2018-04-19T23:22:41.332Z,10.70
2018-04-19T23:25:09.098Z,10.60
2018-04-19T23:27:36.709Z,6.40
2018-04-19T23:30:04.483Z,9.90
2018-04-19T23:32:32.128Z,6.67
2018-04-19T23:34:59.704Z,5.53
2018-04-19T23:37:27.383Z,7.30
2018-04-19T23:39:54.971Z,14.37
2018-04-19T23:42:22.572Z,10.10
2018-04-19T23:44:50.309Z,27.00
2018-04-19T23:47:17.940Z,19.50
2018-04-19T23:49:45.515Z,28.20
2018-04-19T23:52:13.223Z,12.33
2018-04-19T23:54:40.853Z,13.77
2018-04-19T23:57:08.453Z,8.47
2018-04-19T23:59:36.245Z,9.83
